createdAt,value
2022-12-14T00:01:28.249Z,99970.44
2022-12-14T00:03:55.941Z,99972.00
2022-12-14T00:06:25.556Z,99969.19
2022-12-14T00:08:55.404Z,99954.06
2022-12-14T00:11:22.643Z,99974.19
2022-12-14T00:14:00.103Z,99977.44
2022-12-14T00:16:30.055Z,99979.09
2022-12-14T00:18:58.523Z,99985.06
2022-12-14T00:21:25.972Z,99977.22
2022-12-14T00:23:54.334Z,99981.28
2022-12-14T00:26:24.103Z,99995.06
2022-12-14T00:28:53.016Z,99976.47
2022-12-14T00:31:21.895Z,99979.94
2022-12-14T00:33:50.385Z,99995.69
2022-12-14T00:36:17.787Z,99997.34
2022-12-14T00:38:45.037Z,99979.63
2022-12-14T00:41:12.619Z,100004.97
2022-12-14T00:43:39.841Z,100002.34
2022-12-14T00:46:07.514Z,100008.28
2022-12-14T00:48:34.416Z,100008.28
2022-12-14T00:51:01.385Z,99984.19
2022-12-14T00:53:28.310Z,100003.06
2022-12-14T00:55:55.048Z,99993.06
2022-12-14T00:58:23.782Z,100020.09
2022-12-14T01:01:02.883Z,100016.56
2022-12-14T01:03:29.882Z,100020.69
2022-12-14T01:05:57.443Z,100019.03
2022-12-14T01:08:24.644Z,100024.78
2022-12-14T01:10:52.236Z,100033.31
2022-12-14T01:13:19.435Z,100023.72
2022-12-14T01:15:46.946Z,100023.63
2022-12-14T01:18:13.854Z,100002.41
2022-12-14T01:20:40.877Z,100018.41
2022-12-14T01:23:07.547Z,100000.88
2022-12-14T01:25:34.356Z,100003.37
2022-12-14T01:28:01.266Z,100020.06
2022-12-14T01:30:27.903Z,100023.63
2022-12-14T01:32:54.483Z,100026.94
2022-12-14T01:35:21.477Z,100022.78
2022-12-14T01:37:48.923Z,100035.75
2022-12-14T01:40:16.347Z,100029.78
2022-12-14T01:42:43.550Z,100033.31
2022-12-14T01:45:18.475Z,100040.00
2022-12-14T01:47:50.946Z,100036.87
2022-12-14T01:50:23.457Z,100028.53
2022-12-14T01:52:55.240Z,100050.34
2022-12-14T01:55:27.481Z,100043.47
2022-12-14T01:58:00.138Z,100043.75
2022-12-14T02:00:27.000Z,100046.28
2022-12-14T02:03:14.445Z,100046.19
2022-12-14T02:05:46.155Z,100031.34
2022-12-14T02:08:14.440Z,100055.56
2022-12-14T02:10:41.449Z,100048.91
2022-12-14T02:13:19.443Z,100054.94
2022-12-14T02:15:47.324Z,100062.69
2022-12-14T02:18:21.473Z,100045.16
2022-12-14T02:21:06.033Z,100064.25
2022-12-14T02:24:09.351Z,100064.97
2022-12-14T02:27:04.557Z,100064.97
2022-12-14T02:29:46.097Z,100071.88
2022-12-14T02:32:30.941Z,100082.31
2022-12-14T02:35:11.711Z,100074.25
2022-12-14T02:38:13.601Z,100085.84
2022-12-14T02:40:55.731Z,100097.87
2022-12-14T02:43:32.503Z,100095.25
2022-12-14T02:46:24.036Z,100085.53
2022-12-14T02:49:15.548Z,100090.56
2022-12-14T02:52:02.786Z,100100.25
2022-12-14T02:54:34.701Z,100099.66
2022-12-14T02:57:11.303Z,100111.13
2022-12-14T02:59:38.375Z,100115.63
2022-12-14T03:02:06.337Z,100117.69
2022-12-14T03:04:47.420Z,100115.31
2022-12-14T03:07:32.583Z,100113.75
2022-12-14T03:10:22.365Z,100136.59
2022-12-14T03:13:01.773Z,100129.09
2022-12-14T03:15:29.922Z,100124.28
2022-12-14T03:18:02.776Z,100111.87
2022-12-14T03:20:32.532Z,100133.25
2022-12-14T03:23:12.292Z,100124.69
2022-12-14T03:25:44.522Z,100136.16
2022-12-14T03:28:18.230Z,100132.84
2022-12-14T03:31:06.012Z,100131.87
2022-12-14T03:33:36.288Z,100143.69
2022-12-14T03:36:19.675Z,100145.75
2022-12-14T03:38:50.965Z,100150.22
2022-12-14T03:41:43.803Z,100145.44
2022-12-14T03:44:24.981Z,100136.88
2022-12-14T03:47:16.391Z,100150.94
2022-12-14T03:49:43.188Z,100148.66
2022-12-14T03:52:51.207Z,100136.31
2022-12-14T03:55:23.881Z,100155.91
2022-12-14T03:58:10.420Z,100157.78
2022-12-14T04:00:54.873Z,100143.66
2022-12-14T04:03:43.686Z,100155.47
2022-12-14T04:06:36.842Z,100157.47
2022-12-14T04:09:22.356Z,100145.00
2022-12-14T04:12:20.115Z,100161.91
2022-12-14T04:15:13.133Z,100158.31
2022-12-14T04:18:01.001Z,100166.81
2022-12-14T04:20:33.126Z,100169.41
2022-12-14T04:23:07.448Z,100182.66
2022-12-14T04:25:57.034Z,100188.97
2022-12-14T04:28:53.177Z,100193.37
2022-12-14T04:31:23.362Z,100188.34
2022-12-14T04:33:59.459Z,100200.63
2022-12-14T04:36:36.263Z,100194.56
2022-12-14T04:39:08.789Z,100194.69
2022-12-14T04:41:41.117Z,100197.28
2022-12-14T04:44:15.941Z,100197.38
2022-12-14T04:46:44.791Z,100210.22
2022-12-14T04:49:23.386Z,100209.28
2022-12-14T04:52:05.012Z,100206.69
2022-12-14T04:54:45.905Z,100211.69
2022-12-14T04:57:34.298Z,100205.19
2022-12-14T05:00:01.867Z,100215.78
2022-12-14T05:02:50.781Z,100213.56
2022-12-14T05:05:42.552Z,100209.19
2022-12-14T05:08:42.037Z,100238.22
2022-12-14T05:11:52.167Z,100243.31
2022-12-14T05:14:17.432Z,100245.00
2022-12-14T05:16:44.432Z,100246.94
2022-12-14T05:19:16.175Z,100234.59
2022-12-14T05:21:48.962Z,100230.50
2022-12-14T05:24:17.183Z,100252.66
2022-12-14T05:26:44.355Z,100253.69
2022-12-14T05:29:11.855Z,100258.81
2022-12-14T05:31:39.657Z,100252.75
2022-12-14T05:34:06.887Z,100262.34
2022-12-14T05:36:33.792Z,100279.66
2022-12-14T05:39:00.931Z,100278.63
2022-12-14T05:41:27.612Z,100266.16
2022-12-14T05:43:54.319Z,100284.87
2022-12-14T05:46:21.313Z,100289.22
2022-12-14T05:48:49.597Z,100286.81
2022-12-14T05:51:16.932Z,100295.50
2022-12-14T05:53:44.255Z,100298.00
2022-12-14T05:56:11.451Z,100291.47
2022-12-14T05:58:38.841Z,100307.38
2022-12-14T06:01:12.635Z,100303.03
2022-12-14T06:03:42.577Z,100315.19
2022-12-14T06:06:11.747Z,100312.22
2022-12-14T06:08:41.429Z,100326.00
2022-12-14T06:11:11.152Z,100324.13
2022-12-14T06:13:39.328Z,100324.13
2022-12-14T06:16:17.909Z,100308.88
2022-12-14T06:18:50.634Z,100323.84
2022-12-14T06:21:19.632Z,100335.00
2022-12-14T06:23:46.799Z,100346.28
2022-12-14T06:26:15.203Z,100337.56
2022-12-14T06:28:41.994Z,100341.81
2022-12-14T06:31:15.921Z,100339.22
2022-12-14T06:33:42.679Z,100335.97
2022-12-14T06:36:17.934Z,100346.75
2022-12-14T06:38:44.887Z,100341.63
2022-12-14T06:41:12.692Z,100345.44
2022-12-14T06:43:39.384Z,100338.19
2022-12-14T06:46:15.194Z,100351.12
2022-12-14T06:48:43.386Z,100364.41
2022-12-14T06:51:10.416Z,100374.66
2022-12-14T06:53:37.100Z,100371.22
2022-12-14T06:56:12.514Z,100370.13
2022-12-14T06:58:39.235Z,100351.03
2022-12-14T07:01:13.259Z,100355.78
2022-12-14T07:03:42.753Z,100388.19
2022-12-14T07:06:10.392Z,100377.75
2022-12-14T07:08:38.895Z,100378.66
2022-12-14T07:11:11.649Z,100380.75
2022-12-14T07:13:39.480Z,100400.09
2022-12-14T07:16:07.642Z,100408.47
2022-12-14T07:18:34.622Z,100408.28
2022-12-14T07:21:07.054Z,100408.91
2022-12-14T07:23:34.718Z,100415.53
2022-12-14T07:26:07.089Z,100419.63
2022-12-14T07:28:35.591Z,100414.62
2022-12-14T07:31:02.988Z,100420.47
2022-12-14T07:33:30.346Z,100435.00
2022-12-14T07:36:03.271Z,100436.50
2022-12-14T07:38:30.413Z,100439.94
2022-12-14T07:41:12.275Z,100437.22
2022-12-14T07:43:39.996Z,100453.91
2022-12-14T07:46:09.571Z,100455.69
2022-12-14T07:48:36.504Z,100452.16
2022-12-14T07:51:09.288Z,100442.19
2022-12-14T07:53:37.348Z,100462.31
2022-12-14T07:56:10.830Z,100453.44
2022-12-14T07:58:37.797Z,100444.13
2022-12-14T08:01:18.214Z,100465.28
2022-12-14T08:03:54.338Z,100460.72
2022-12-14T08:06:23.749Z,100474.50
2022-12-14T08:08:51.606Z,100473.66
2022-12-14T08:11:19.013Z,100477.00
2022-12-14T08:13:46.838Z,100487.44
2022-12-14T08:16:16.290Z,100475.31
2022-12-14T08:18:46.080Z,100484.56
2022-12-14T08:21:15.390Z,100492.28
2022-12-14T08:23:42.017Z,100487.69
2022-12-14T08:26:09.016Z,100483.97
2022-12-14T08:28:36.812Z,100480.97
2022-12-14T08:31:09.291Z,100493.00
2022-12-14T08:33:37.574Z,100491.97
2022-12-14T08:36:22.310Z,100478.56
2022-12-14T08:38:54.611Z,100497.00
2022-12-14T08:41:22.087Z,100489.28
2022-12-14T08:43:58.605Z,100500.81
2022-12-14T08:46:27.033Z,100484.59
2022-12-14T08:48:55.385Z,100505.84
2022-12-14T08:51:23.390Z,100507.31
2022-12-14T08:53:52.253Z,100488.37
2022-12-14T08:56:22.276Z,100496.34
2022-12-14T08:58:49.221Z,100495.22
2022-12-14T09:01:21.157Z,100500.38
2022-12-14T09:03:48.847Z,100494.03
2022-12-14T09:06:19.558Z,100510.81
2022-12-14T09:08:49.680Z,100496.47
2022-12-14T09:11:19.624Z,100506.16
2022-12-14T09:13:46.999Z,100504.06
2022-12-14T09:16:22.175Z,100493.91
2022-12-14T09:18:50.360Z,100505.97
2022-12-14T09:21:18.102Z,100509.31
2022-12-14T09:23:45.509Z,100511.56
2022-12-14T09:26:17.737Z,100511.56
2022-12-14T09:28:53.919Z,100517.59
2022-12-14T09:31:23.157Z,100514.38
2022-12-14T09:33:50.298Z,100520.12
2022-12-14T09:36:19.404Z,100511.66
2022-12-14T09:38:51.025Z,100515.53
2022-12-14T09:41:30.494Z,100503.50
2022-12-14T09:44:31.074Z,100526.13
2022-12-14T09:47:17.926Z,100530.94
2022-12-14T09:49:47.467Z,100506.91
2022-12-14T09:52:21.341Z,100533.56
2022-12-14T09:54:49.732Z,100526.75
2022-12-14T09:57:33.327Z,100534.69
2022-12-14T10:00:00.562Z,100533.09
2022-12-14T10:02:47.456Z,100536.69
2022-12-14T10:05:47.079Z,100537.63
2022-12-14T10:08:21.505Z,100544.53
2022-12-14T10:10:51.335Z,100549.56
2022-12-14T10:13:55.647Z,100527.34
2022-12-14T10:16:36.385Z,100540.47
2022-12-14T10:19:27.140Z,100541.31
2022-12-14T10:22:16.792Z,100531.06
2022-12-14T10:24:48.279Z,100533.97
2022-12-14T10:27:23.340Z,100530.50
2022-12-14T10:29:54.678Z,100538.06
2022-12-14T10:32:36.831Z,100525.09
2022-12-14T10:35:19.508Z,100529.47
2022-12-14T10:38:00.516Z,100536.38
2022-12-14T10:40:34.082Z,100537.00
2022-12-14T10:43:27.491Z,100553.56
2022-12-14T10:45:54.055Z,100563.59
2022-12-14T10:48:45.285Z,100558.91
2022-12-14T10:51:18.033Z,100551.69
2022-12-14T10:53:52.001Z,100558.50
2022-12-14T10:56:26.200Z,100550.84
2022-12-14T10:59:20.618Z,100556.84
2022-12-14T11:02:20.636Z,100566.34
2022-12-14T11:04:52.187Z,100561.97
2022-12-14T11:07:24.651Z,100556.63
2022-12-14T11:09:52.704Z,100559.25
2022-12-14T11:12:24.902Z,100563.63
2022-12-14T11:14:55.387Z,100556.91
2022-12-14T11:17:43.440Z,100562.78
2022-12-14T11:20:22.972Z,100562.78
2022-12-14T11:22:55.937Z,100562.06
2022-12-14T11:25:41.384Z,100562.06
2022-12-14T11:28:41.337Z,100558.91
2022-12-14T11:31:11.593Z,100568.03
2022-12-14T11:33:40.637Z,100557.97
2022-12-14T11:36:08.996Z,100561.97
2022-12-14T11:38:36.728Z,100555.87
2022-12-14T11:41:10.567Z,100533.06
2022-12-14T11:43:41.236Z,100558.19
2022-12-14T11:46:08.027Z,100560.03
2022-12-14T11:48:38.409Z,100560.78
2022-12-14T11:51:13.731Z,100558.81
2022-12-14T11:53:41.505Z,100571.06
2022-12-14T11:56:16.277Z,100565.16
2022-12-14T11:58:53.444Z,100568.63
2022-12-14T12:01:26.724Z,100573.97
2022-12-14T12:03:56.970Z,100580.75
2022-12-14T12:06:29.966Z,100586.19
2022-12-14T12:09:02.581Z,100584.53
2022-12-14T12:11:34.944Z,100589.97
2022-12-14T12:14:13.633Z,100596.03
2022-12-14T12:16:43.149Z,100590.69
2022-12-14T12:19:15.461Z,100594.13
2022-12-14T12:21:44.798Z,100588.81
2022-12-14T12:24:20.935Z,100606.28
2022-12-14T12:26:51.194Z,100612.25
2022-12-14T12:29:27.909Z,100613.84
2022-12-14T12:32:00.226Z,100601.34
2022-12-14T12:34:44.878Z,100614.56
2022-12-14T12:37:27.173Z,100622.59
2022-12-14T12:40:00.671Z,100629.00
2022-12-14T12:42:50.001Z,100633.47
2022-12-14T12:45:24.650Z,100642.28
2022-12-14T12:48:03.065Z,100640.78
2022-12-14T12:50:35.276Z,100635.75
2022-12-14T12:53:17.940Z,100638.28
2022-12-14T12:55:50.121Z,100642.78
2022-12-14T12:58:26.097Z,100642.88
2022-12-14T13:00:55.757Z,100637.81
2022-12-14T13:03:32.375Z,100639.25
2022-12-14T13:06:17.719Z,100638.88
2022-12-14T13:08:49.809Z,100640.69
2022-12-14T13:11:26.445Z,100647.22
2022-12-14T13:13:58.156Z,100654.34
2022-12-14T13:16:43.134Z,100659.84
2022-12-14T13:22:15.003Z,100661.44
2022-12-14T13:24:47.953Z,100661.06
2022-12-14T13:27:20.980Z,100660.50
2022-12-14T13:30:18.696Z,100665.94
2022-12-14T17:01:02.561Z,100759.22
2022-12-14T17:03:31.959Z,100759.22
2022-12-14T17:06:02.210Z,100769.16
2022-12-14T17:08:29.463Z,100775.06
2022-12-14T17:10:56.965Z,100772.53
2022-12-14T17:13:23.651Z,100772.63
2022-12-14T17:16:04.663Z,100770.75
2022-12-14T17:18:36.337Z,100772.63
2022-12-14T17:21:05.401Z,100782.34
2022-12-14T17:23:34.578Z,100776.22
2022-12-14T17:26:01.370Z,100778.84
2022-12-14T17:28:30.751Z,100771.00
2022-12-14T17:30:59.410Z,100773.53
2022-12-14T17:33:28.061Z,100768.31
2022-12-14T17:35:55.786Z,100770.09
2022-12-14T17:38:23.122Z,100769.31
2022-12-14T17:40:51.406Z,100759.41
2022-12-14T17:43:22.597Z,100759.56
2022-12-14T17:45:49.356Z,100774.03
2022-12-14T17:48:17.587Z,100777.72
2022-12-14T17:50:47.607Z,100777.16
2022-12-14T17:53:15.048Z,100782.78
2022-12-14T17:55:42.033Z,100775.41
2022-12-14T17:58:12.522Z,100768.19
2022-12-14T18:00:59.048Z,100769.13
2022-12-14T18:03:27.808Z,100765.91
2022-12-14T18:05:54.973Z,100757.66
2022-12-14T18:08:23.116Z,100746.78
2022-12-14T18:11:02.119Z,100768.25
2022-12-14T18:13:31.384Z,100764.09
2022-12-14T18:16:00.135Z,100742.22
2022-12-14T18:18:27.775Z,100745.72
2022-12-14T18:21:00.566Z,100751.72
2022-12-14T18:23:29.376Z,100750.09
2022-12-14T18:25:59.324Z,100767.19
2022-12-14T18:28:26.419Z,100744.16
2022-12-14T18:30:57.020Z,100756.59
2022-12-14T18:33:26.231Z,100754.84
2022-12-14T18:35:55.662Z,100748.78
2022-12-14T18:38:23.000Z,100747.94
2022-12-14T18:40:52.486Z,100746.34
2022-12-14T18:43:26.378Z,100732.13
2022-12-14T18:45:55.695Z,100757.59
2022-12-14T18:48:24.617Z,100755.81
2022-12-14T18:50:53.758Z,100756.53
2022-12-14T18:53:22.382Z,100759.88
2022-12-14T18:55:49.975Z,100749.22
2022-12-14T18:58:25.581Z,100749.91
2022-12-14T19:00:55.325Z,100738.97
2022-12-14T19:03:23.573Z,100753.94
2022-12-14T19:05:50.280Z,100730.00
2022-12-14T19:08:18.125Z,100733.97
2022-12-14T19:10:47.951Z,100736.56
2022-12-14T19:13:24.987Z,100735.87
2022-12-14T19:15:53.935Z,100733.44
2022-12-14T19:18:20.705Z,100730.06
2022-12-14T19:20:49.673Z,100722.34
2022-12-14T19:23:18.276Z,100724.19
2022-12-14T19:25:45.873Z,100699.62
2022-12-14T19:28:31.293Z,100689.38
2022-12-14T19:30:59.597Z,100707.03
2022-12-14T19:33:28.672Z,100698.44
2022-12-14T19:35:56.219Z,100696.78
2022-12-14T19:38:23.240Z,100693.31
2022-12-14T19:41:02.033Z,100695.00
2022-12-14T19:43:29.944Z,100687.38
2022-12-14T19:45:57.137Z,100684.00
2022-12-14T19:48:27.217Z,100679.78
2022-12-14T19:50:55.546Z,100672.22
2022-12-14T19:53:23.995Z,100672.06
2022-12-14T19:55:52.724Z,100674.75
2022-12-14T19:58:22.095Z,100677.34
2022-12-14T20:00:50.046Z,100678.19
2022-12-14T20:03:17.621Z,100676.53
2022-12-14T20:05:51.828Z,100679.88
2022-12-14T20:08:19.678Z,100684.25
2022-12-14T20:10:46.813Z,100689.38
2022-12-14T20:13:13.682Z,100690.22
2022-12-14T20:15:47.252Z,100685.84
2022-12-14T20:18:16.020Z,100698.78
2022-12-14T20:20:43.756Z,100690.87
2022-12-14T20:23:10.776Z,100695.94
2022-12-14T20:25:37.530Z,100699.47
2022-12-14T20:28:04.850Z,100699.91
2022-12-14T20:30:31.685Z,100707.38
2022-12-14T20:32:58.400Z,100686.38
2022-12-14T20:35:25.453Z,100692.94
2022-12-14T20:37:55.783Z,100691.03
2022-12-14T20:40:22.661Z,100680.38
2022-12-14T20:42:49.690Z,100693.12
2022-12-14T20:45:16.452Z,100676.16
2022-12-14T20:47:43.073Z,100689.16
2022-12-14T20:50:10.467Z,100685.72
2022-12-14T20:52:37.202Z,100690.69
2022-12-14T20:55:04.664Z,100685.38
2022-12-14T20:57:33.191Z,100690.53
2022-12-14T21:00:00.168Z,100688.69
2022-12-14T21:02:27.075Z,100688.59
2022-12-14T21:04:54.093Z,100681.22
2022-12-14T21:07:25.877Z,100690.09
2022-12-14T21:09:53.165Z,100697.81
2022-12-14T21:12:23.003Z,100700.44
2022-12-14T21:14:55.141Z,100679.66
2022-12-14T21:17:26.234Z,100687.41
2022-12-14T21:19:53.488Z,100690.94
2022-12-14T21:22:23.651Z,100696.16
2022-12-14T21:25:07.156Z,100690.09
2022-12-14T21:27:38.354Z,100697.91
2022-12-14T21:30:08.974Z,100674.13
2022-12-14T21:32:37.059Z,100665.41
2022-12-14T21:35:04.340Z,100667.66
2022-12-14T21:37:31.412Z,100665.72
2022-12-14T21:39:58.220Z,100649.06
2022-12-14T21:42:25.671Z,100644.69
2022-12-14T21:44:53.937Z,100640.31
2022-12-14T21:47:26.351Z,100627.19
2022-12-14T21:49:54.224Z,100626.19
2022-12-14T21:52:23.152Z,100608.38
2022-12-14T21:54:50.220Z,100615.56
2022-12-14T21:57:41.403Z,100605.22
2022-12-14T22:00:10.279Z,100610.19
2022-12-14T22:02:39.219Z,100599.75
2022-12-14T22:05:06.667Z,100590.19
2022-12-14T22:07:34.180Z,100592.69
2022-12-14T22:10:01.138Z,100588.31
2022-12-14T22:12:28.471Z,100581.22
2022-12-14T22:14:55.437Z,100592.53
2022-12-14T22:17:22.190Z,100574.84
2022-12-14T22:19:50.944Z,100588.03
2022-12-14T22:22:17.804Z,100592.34
2022-12-14T22:24:47.577Z,100564.38
2022-12-14T22:27:14.946Z,100598.22
2022-12-14T22:29:41.787Z,100584.50
2022-12-14T22:32:11.221Z,100581.72
2022-12-14T22:34:38.173Z,100586.94
2022-12-14T22:37:04.956Z,100593.00
2022-12-14T22:39:31.623Z,100583.47
2022-12-14T22:41:58.526Z,100590.28
2022-12-14T22:44:25.258Z,100567.00
